sensor_id;sensor_type;location;lat;lon;timestamp;temperature;humidity
22623;DHT22;11478;51.094;7.030;2022-10-13T00:00:45;6.90;99.90
22623;DHT22;11478;51.094;7.030;2022-10-13T00:03:11;6.90;99.90
22623;DHT22;11478;51.094;7.030;2022-10-13T00:05:43;6.90;99.90
22623;DHT22;11478;51.094;7.030;2022-10-13T00:08:14;6.90;99.90
22623;DHT22;11478;51.094;7.030;2022-10-13T00:10:40;6.90;99.90
22623;DHT22;11478;51.094;7.030;2022-10-13T00:13:07;6.90;99.90
22623;DHT22;11478;51.094;7.030;2022-10-13T00:15:36;6.90;99.90
22623;DHT22;11478;51.094;7.030;2022-10-13T00:18:02;6.90;99.90
22623;DHT22;11478;51.094;7.030;2022-10-13T00:20:27;6.90;99.90
22623;DHT22;11478;51.094;7.030;2022-10-13T00:23:01;7.00;99.90
22623;DHT22;11478;51.094;7.030;2022-10-13T00:25:27;7.00;99.90
22623;DHT22;11478;51.094;7.030;2022-10-13T00:27:53;7.00;99.90
22623;DHT22;11478;51.094;7.030;2022-10-13T00:30:18;7.00;99.90
22623;DHT22;11478;51.094;7.030;2022-10-13T00:32:45;7.00;99.90
22623;DHT22;11478;51.094;7.030;2022-10-13T00:35:13;7.00;99.90
22623;DHT22;11478;51.094;7.030;2022-10-13T00:37:39;7.10;99.90
22623;DHT22;11478;51.094;7.030;2022-10-13T00:40:05;7.10;99.90
22623;DHT22;11478;51.094;7.030;2022-10-13T00:42:31;7.10;99.90
22623;DHT22;11478;51.094;7.030;2022-10-13T00:45:05;7.10;99.90
22623;DHT22;11478;51.094;7.030;2022-10-13T00:47:38;7.10;99.90
22623;DHT22;11478;51.094;7.030;2022-10-13T00:50:06;7.20;99.90
22623;DHT22;11478;51.094;7.030;2022-10-13T00:52:33;7.20;99.90
22623;DHT22;11478;51.094;7.030;2022-10-13T00:55:00;7.20;99.90
22623;DHT22;11478;51.094;7.030;2022-10-13T00:57:28;7.10;99.90
22623;DHT22;11478;51.094;7.030;2022-10-13T00:59:54;7.10;99.90
22623;DHT22;11478;51.094;7.030;2022-10-13T01:02:20;7.10;99.90
22623;DHT22;11478;51.094;7.030;2022-10-13T01:04:49;7.20;99.90
22623;DHT22;11478;51.094;7.030;2022-10-13T01:07:16;7.10;99.90
22623;DHT22;11478;51.094;7.030;2022-10-13T01:09:43;7.10;99.90
22623;DHT22;11478;51.094;7.030;2022-10-13T01:24:49;7.10;99.90
22623;DHT22;11478;51.094;7.030;2022-10-13T01:32:31;7.10;99.90
22623;DHT22;11478;51.094;7.030;2022-10-13T01:35:01;7.20;99.90
22623;DHT22;11478;51.094;7.030;2022-10-13T01:37:45;7.20;99.90
22623;DHT22;11478;51.094;7.030;2022-10-13T01:45:17;7.20;99.90
22623;DHT22;11478;51.094;7.030;2022-10-13T01:47:43;7.20;99.90
22623;DHT22;11478;51.094;7.030;2022-10-13T01:50:12;7.20;99.90
22623;DHT22;11478;51.094;7.030;2022-10-13T01:52:41;7.20;99.90
22623;DHT22;11478;51.094;7.030;2022-10-13T01:55:08;7.20;99.90
22623;DHT22;11478;51.094;7.030;2022-10-13T01:57:39;7.20;99.90
22623;DHT22;11478;51.094;7.030;2022-10-13T02:00:12;7.20;99.90
22623;DHT22;11478;51.094;7.030;2022-10-13T02:13:39;7.20;99.90
22623;DHT22;11478;51.094;7.030;2022-10-13T02:16:07;7.20;99.90
22623;DHT22;11478;51.094;7.030;2022-10-13T02:18:35;7.20;99.90
22623;DHT22;11478;51.094;7.030;2022-10-13T02:21:01;7.30;99.90
22623;DHT22;11478;51.094;7.030;2022-10-13T02:23:27;7.30;99.90
22623;DHT22;11478;51.094;7.030;2022-10-13T02:25:55;7.30;99.90
22623;DHT22;11478;51.094;7.030;2022-10-13T02:28:21;7.30;99.90
22623;DHT22;11478;51.094;7.030;2022-10-13T02:30:47;7.30;99.90
22623;DHT22;11478;51.094;7.030;2022-10-13T02:33:13;7.40;99.90
22623;DHT22;11478;51.094;7.030;2022-10-13T02:35:41;7.40;99.90
22623;DHT22;11478;51.094;7.030;2022-10-13T02:38:09;7.40;99.90
22623;DHT22;11478;51.094;7.030;2022-10-13T02:40:44;7.40;99.90
22623;DHT22;11478;51.094;7.030;2022-10-13T02:43:10;7.40;99.90
22623;DHT22;11478;51.094;7.030;2022-10-13T02:45:36;7.50;99.90
22623;DHT22;11478;51.094;7.030;2022-10-13T02:48:02;7.50;99.90
22623;DHT22;11478;51.094;7.030;2022-10-13T02:50:28;7.50;99.90
22623;DHT22;11478;51.094;7.030;2022-10-13T02:52:54;7.60;99.90
22623;DHT22;11478;51.094;7.030;2022-10-13T02:55:19;7.60;99.90
22623;DHT22;11478;51.094;7.030;2022-10-13T02:57:48;7.60;99.90
22623;DHT22;11478;51.094;7.030;2022-10-13T03:00:24;7.60;99.90
22623;DHT22;11478;51.094;7.030;2022-10-13T03:02:50;7.60;99.90
22623;DHT22;11478;51.094;7.030;2022-10-13T03:05:31;7.60;99.90
22623;DHT22;11478;51.094;7.030;2022-10-13T03:07:57;7.70;99.90
22623;DHT22;11478;51.094;7.030;2022-10-13T03:10:23;7.70;99.90
22623;DHT22;11478;51.094;7.030;2022-10-13T03:12:55;7.70;99.90
22623;DHT22;11478;51.094;7.030;2022-10-13T03:15:21;7.70;99.90
22623;DHT22;11478;51.094;7.030;2022-10-13T03:17:47;7.80;99.90
22623;DHT22;11478;51.094;7.030;2022-10-13T03:20:13;7.80;99.90
22623;DHT22;11478;51.094;7.030;2022-10-13T03:22:39;7.80;99.90
22623;DHT22;11478;51.094;7.030;2022-10-13T03:25:04;7.80;99.90
22623;DHT22;11478;51.094;7.030;2022-10-13T03:27:30;7.80;99.90
22623;DHT22;11478;51.094;7.030;2022-10-13T03:29:56;7.90;99.90
22623;DHT22;11478;51.094;7.030;2022-10-13T03:32:22;7.80;99.90
22623;DHT22;11478;51.094;7.030;2022-10-13T03:34:48;7.90;99.90
22623;DHT22;11478;51.094;7.030;2022-10-13T03:39:44;7.90;99.90
22623;DHT22;11478;51.094;7.030;2022-10-13T03:42:11;8.00;99.90
22623;DHT22;11478;51.094;7.030;2022-10-13T03:44:37;8.00;99.90
22623;DHT22;11478;51.094;7.030;2022-10-13T03:47:03;8.00;99.90
22623;DHT22;11478;51.094;7.030;2022-10-13T03:49:29;8.00;99.90
22623;DHT22;11478;51.094;7.030;2022-10-13T03:51:57;8.00;99.90
22623;DHT22;11478;51.094;7.030;2022-10-13T03:54:22;8.00;99.90
22623;DHT22;11478;51.094;7.030;2022-10-13T03:56:50;8.00;99.90
22623;DHT22;11478;51.094;7.030;2022-10-13T03:59:18;8.10;99.90
22623;DHT22;11478;51.094;7.030;2022-10-13T04:01:44;8.10;99.90
22623;DHT22;11478;51.094;7.030;2022-10-13T04:04:10;8.10;99.90
22623;DHT22;11478;51.094;7.030;2022-10-13T04:06:36;8.10;99.90
22623;DHT22;11478;51.094;7.030;2022-10-13T04:09:02;8.10;99.90
22623;DHT22;11478;51.094;7.030;2022-10-13T04:11:28;8.10;99.90
22623;DHT22;11478;51.094;7.030;2022-10-13T04:13:57;8.10;99.90
22623;DHT22;11478;51.094;7.030;2022-10-13T04:16:25;8.10;99.90
22623;DHT22;11478;51.094;7.030;2022-10-13T04:18:55;8.10;99.90
22623;DHT22;11478;51.094;7.030;2022-10-13T04:21:23;8.10;99.90
22623;DHT22;11478;51.094;7.030;2022-10-13T04:23:49;8.10;99.90
22623;DHT22;11478;51.094;7.030;2022-10-13T04:26:16;8.10;99.90
22623;DHT22;11478;51.094;7.030;2022-10-13T04:28:43;8.10;99.90
22623;DHT22;11478;51.094;7.030;2022-10-13T04:31:08;8.20;99.90
22623;DHT22;11478;51.094;7.030;2022-10-13T04:33:34;8.20;99.90
22623;DHT22;11478;51.094;7.030;2022-10-13T04:36:06;8.20;99.90
22623;DHT22;11478;51.094;7.030;2022-10-13T04:38:33;8.10;99.90
22623;DHT22;11478;51.094;7.030;2022-10-13T04:41:01;8.10;99.90
22623;DHT22;11478;51.094;7.030;2022-10-13T04:43:27;8.20;99.90
22623;DHT22;11478;51.094;7.030;2022-10-13T04:46:05;8.20;99.90
22623;DHT22;11478;51.094;7.030;2022-10-13T04:48:31;8.10;99.90
22623;DHT22;11478;51.094;7.030;2022-10-13T04:51:06;8.20;99.90
22623;DHT22;11478;51.094;7.030;2022-10-13T04:53:33;8.20;99.90
22623;DHT22;11478;51.094;7.030;2022-10-13T04:56:02;8.10;99.90
22623;DHT22;11478;51.094;7.030;2022-10-13T04:58:29;8.10;99.90
22623;DHT22;11478;51.094;7.030;2022-10-13T05:00:55;8.10;99.90
22623;DHT22;11478;51.094;7.030;2022-10-13T05:03:22;8.10;99.90
22623;DHT22;11478;51.094;7.030;2022-10-13T05:05:51;8.10;99.90
22623;DHT22;11478;51.094;7.030;2022-10-13T05:08:17;8.10;99.90
22623;DHT22;11478;51.094;7.030;2022-10-13T05:10:51;8.20;99.90
22623;DHT22;11478;51.094;7.030;2022-10-13T05:13:17;8.20;99.90
22623;DHT22;11478;51.094;7.030;2022-10-13T05:15:44;8.20;99.90
22623;DHT22;11478;51.094;7.030;2022-10-13T05:18:09;8.20;99.90
22623;DHT22;11478;51.094;7.030;2022-10-13T05:20:38;8.20;99.90
22623;DHT22;11478;51.094;7.030;2022-10-13T05:23:04;8.20;99.90
22623;DHT22;11478;51.094;7.030;2022-10-13T05:25:33;8.20;99.90
22623;DHT22;11478;51.094;7.030;2022-10-13T05:27:58;8.20;99.90
22623;DHT22;11478;51.094;7.030;2022-10-13T05:30:30;8.30;99.90
22623;DHT22;11478;51.094;7.030;2022-10-13T05:32:56;8.30;99.90
22623;DHT22;11478;51.094;7.030;2022-10-13T05:35:24;8.30;99.90
22623;DHT22;11478;51.094;7.030;2022-10-13T05:37:50;8.30;99.90
22623;DHT22;11478;51.094;7.030;2022-10-13T05:40:17;8.30;99.90
22623;DHT22;11478;51.094;7.030;2022-10-13T05:42:42;8.30;99.90
22623;DHT22;11478;51.094;7.030;2022-10-13T05:45:10;8.30;99.90
22623;DHT22;11478;51.094;7.030;2022-10-13T05:47:35;8.30;99.90
22623;DHT22;11478;51.094;7.030;2022-10-13T05:50:03;8.30;99.90
22623;DHT22;11478;51.094;7.030;2022-10-13T05:52:31;8.30;99.90
22623;DHT22;11478;51.094;7.030;2022-10-13T05:55:02;8.40;99.90
22623;DHT22;11478;51.094;7.030;2022-10-13T05:57:32;8.40;99.90
22623;DHT22;11478;51.094;7.030;2022-10-13T06:00:01;8.40;99.90
22623;DHT22;11478;51.094;7.030;2022-10-13T06:05:33;8.40;99.90
22623;DHT22;11478;51.094;7.030;2022-10-13T06:07:58;8.50;99.90
22623;DHT22;11478;51.094;7.030;2022-10-13T06:10:24;8.50;99.90
22623;DHT22;11478;51.094;7.030;2022-10-13T06:12:56;8.50;99.90
22623;DHT22;11478;51.094;7.030;2022-10-13T06:15:22;8.50;99.90
22623;DHT22;11478;51.094;7.030;2022-10-13T06:17:48;8.60;99.90
22623;DHT22;11478;51.094;7.030;2022-10-13T06:20:14;8.60;99.90
22623;DHT22;11478;51.094;7.030;2022-10-13T06:22:41;8.60;99.90
22623;DHT22;11478;51.094;7.030;2022-10-13T06:25:06;8.60;99.90
22623;DHT22;11478;51.094;7.030;2022-10-13T06:27:35;8.70;99.90
22623;DHT22;11478;51.094;7.030;2022-10-13T06:30:00;8.60;99.90
22623;DHT22;11478;51.094;7.030;2022-10-13T06:32:28;8.60;99.90
22623;DHT22;11478;51.094;7.030;2022-10-13T06:34:54;8.70;99.90
22623;DHT22;11478;51.094;7.030;2022-10-13T06:37:31;8.70;99.90
22623;DHT22;11478;51.094;7.030;2022-10-13T06:39:57;8.70;99.90
22623;DHT22;11478;51.094;7.030;2022-10-13T06:42:25;8.70;99.90
22623;DHT22;11478;51.094;7.030;2022-10-13T06:44:51;8.70;99.90
22623;DHT22;11478;51.094;7.030;2022-10-13T06:47:19;8.80;99.90
22623;DHT22;11478;51.094;7.030;2022-10-13T06:49:44;8.80;99.90
22623;DHT22;11478;51.094;7.030;2022-10-13T06:52:10;8.80;99.90
22623;DHT22;11478;51.094;7.030;2022-10-13T06:54:36;8.80;99.90
22623;DHT22;11478;51.094;7.030;2022-10-13T06:57:04;8.90;99.90
22623;DHT22;11478;51.094;7.030;2022-10-13T06:59:30;8.90;99.90
22623;DHT22;11478;51.094;7.030;2022-10-13T07:05:03;9.00;99.90
22623;DHT22;11478;51.094;7.030;2022-10-13T07:07:32;9.00;99.90
22623;DHT22;11478;51.094;7.030;2022-10-13T07:09:57;9.00;99.90
22623;DHT22;11478;51.094;7.030;2022-10-13T07:12:23;9.00;99.90
22623;DHT22;11478;51.094;7.030;2022-10-13T07:17:17;9.10;99.90
22623;DHT22;11478;51.094;7.030;2022-10-13T07:19:46;9.20;99.90
22623;DHT22;11478;51.094;7.030;2022-10-13T07:22:13;9.20;99.90
22623;DHT22;11478;51.094;7.030;2022-10-13T07:24:42;9.30;99.90
22623;DHT22;11478;51.094;7.030;2022-10-13T07:27:08;9.40;99.90
22623;DHT22;11478;51.094;7.030;2022-10-13T07:29:34;9.40;99.90
22623;DHT22;11478;51.094;7.030;2022-10-13T07:32:00;9.50;99.90
22623;DHT22;11478;51.094;7.030;2022-10-13T07:34:26;9.60;99.90
22623;DHT22;11478;51.094;7.030;2022-10-13T07:36:54;9.60;99.90
22623;DHT22;11478;51.094;7.030;2022-10-13T07:39:21;9.70;99.90
22623;DHT22;11478;51.094;7.030;2022-10-13T07:41:47;9.80;99.90
22623;DHT22;11478;51.094;7.030;2022-10-13T07:44:14;9.80;99.90
22623;DHT22;11478;51.094;7.030;2022-10-13T07:46:47;9.90;99.90
22623;DHT22;11478;51.094;7.030;2022-10-13T07:49:13;9.90;99.90
22623;DHT22;11478;51.094;7.030;2022-10-13T07:51:41;10.00;99.90
22623;DHT22;11478;51.094;7.030;2022-10-13T07:54:07;10.00;99.90
22623;DHT22;11478;51.094;7.030;2022-10-13T07:56:33;10.10;99.90
22623;DHT22;11478;51.094;7.030;2022-10-13T07:59:01;10.10;99.90
22623;DHT22;11478;51.094;7.030;2022-10-13T08:01:29;10.10;99.90
22623;DHT22;11478;51.094;7.030;2022-10-13T08:03:55;10.20;99.90
22623;DHT22;11478;51.094;7.030;2022-10-13T08:06:21;10.10;99.90
22623;DHT22;11478;51.094;7.030;2022-10-13T08:08:47;10.20;99.90
22623;DHT22;11478;51.094;7.030;2022-10-13T08:11:19;10.20;99.90
22623;DHT22;11478;51.094;7.030;2022-10-13T08:13:45;10.30;99.90
22623;DHT22;11478;51.094;7.030;2022-10-13T08:16:16;10.30;99.90
22623;DHT22;11478;51.094;7.030;2022-10-13T08:18:43;10.40;99.90
22623;DHT22;11478;51.094;7.030;2022-10-13T08:21:14;10.40;99.90
22623;DHT22;11478;51.094;7.030;2022-10-13T08:23:43;10.50;99.90
22623;DHT22;11478;51.094;7.030;2022-10-13T08:26:18;10.60;99.90
22623;DHT22;11478;51.094;7.030;2022-10-13T08:28:46;10.60;99.90
22623;DHT22;11478;51.094;7.030;2022-10-13T08:31:12;10.70;99.90
22623;DHT22;11478;51.094;7.030;2022-10-13T08:33:39;10.80;99.90
22623;DHT22;11478;51.094;7.030;2022-10-13T08:36:06;10.90;99.90
22623;DHT22;11478;51.094;7.030;2022-10-13T08:38:32;11.00;99.90
22623;DHT22;11478;51.094;7.030;2022-10-13T08:40:58;11.10;99.90
22623;DHT22;11478;51.094;7.030;2022-10-13T08:43:23;11.20;99.90
22623;DHT22;11478;51.094;7.030;2022-10-13T08:45:51;11.30;99.90
22623;DHT22;11478;51.094;7.030;2022-10-13T08:48:18;11.40;99.90
22623;DHT22;11478;51.094;7.030;2022-10-13T08:50:47;11.40;99.90
22623;DHT22;11478;51.094;7.030;2022-10-13T08:53:17;11.50;99.90
22623;DHT22;11478;51.094;7.030;2022-10-13T08:56:06;11.60;99.90
22623;DHT22;11478;51.094;7.030;2022-10-13T08:58:34;11.70;99.90
22623;DHT22;11478;51.094;7.030;2022-10-13T09:06:10;12.00;99.90
22623;DHT22;11478;51.094;7.030;2022-10-13T09:09:11;12.10;99.90
22623;DHT22;11478;51.094;7.030;2022-10-13T09:11:34;12.20;99.90
22623;DHT22;11478;51.094;7.030;2022-10-13T09:14:06;12.30;99.90
22623;DHT22;11478;51.094;7.030;2022-10-13T09:21:36;12.50;99.90
22623;DHT22;11478;51.094;7.030;2022-10-13T09:24:06;12.60;99.90
22623;DHT22;11478;51.094;7.030;2022-10-13T09:26:37;12.60;99.90
22623;DHT22;11478;51.094;7.030;2022-10-13T09:29:10;12.60;99.90
22623;DHT22;11478;51.094;7.030;2022-10-13T09:31:36;12.70;99.90
22623;DHT22;11478;51.094;7.030;2022-10-13T09:37:03;12.70;99.90
22623;DHT22;11478;51.094;7.030;2022-10-13T09:39:30;12.70;99.90
22623;DHT22;11478;51.094;7.030;2022-10-13T09:44:45;12.90;99.90
22623;DHT22;11478;51.094;7.030;2022-10-13T09:47:18;12.90;99.90
22623;DHT22;11478;51.094;7.030;2022-10-13T09:49:45;13.00;99.90
22623;DHT22;11478;51.094;7.030;2022-10-13T09:52:25;13.20;99.90
22623;DHT22;11478;51.094;7.030;2022-10-13T09:57:50;13.50;99.90
22623;DHT22;11478;51.094;7.030;2022-10-13T10:00:29;13.60;99.90
22623;DHT22;11478;51.094;7.030;2022-10-13T10:09:01;13.80;99.90
22623;DHT22;11478;51.094;7.030;2022-10-13T10:11:00;13.80;99.90
22623;DHT22;11478;51.094;7.030;2022-10-13T10:13:35;13.90;99.90
22623;DHT22;11478;51.094;7.030;2022-10-13T10:16:02;13.90;99.90
22623;DHT22;11478;51.094;7.030;2022-10-13T10:18:50;14.00;99.90
22623;DHT22;11478;51.094;7.030;2022-10-13T10:23:50;14.20;99.90
22623;DHT22;11478;51.094;7.030;2022-10-13T10:26:41;14.20;99.90
22623;DHT22;11478;51.094;7.030;2022-10-13T10:30:12;14.30;99.90
22623;DHT22;11478;51.094;7.030;2022-10-13T10:35:17;14.60;99.90
22623;DHT22;11478;51.094;7.030;2022-10-13T10:37:54;14.70;99.90
22623;DHT22;11478;51.094;7.030;2022-10-13T10:45:56;14.80;99.90
22623;DHT22;11478;51.094;7.030;2022-10-13T10:54:40;14.70;99.90
22623;DHT22;11478;51.094;7.030;2022-10-13T11:04:58;14.60;99.90
22623;DHT22;11478;51.094;7.030;2022-10-13T11:20:56;14.50;99.90
22623;DHT22;11478;51.094;7.030;2022-10-13T11:23:29;14.60;99.90
22623;DHT22;11478;51.094;7.030;2022-10-13T11:56:33;14.40;99.90
22623;DHT22;11478;51.094;7.030;2022-10-13T11:59:02;14.30;99.90
22623;DHT22;11478;51.094;7.030;2022-10-13T12:01:32;14.30;99.90
22623;DHT22;11478;51.094;7.030;2022-10-13T12:04:10;14.30;99.90
22623;DHT22;11478;51.094;7.030;2022-10-13T12:06:41;14.20;99.90
22623;DHT22;11478;51.094;7.030;2022-10-13T12:09:19;14.20;99.90
22623;DHT22;11478;51.094;7.030;2022-10-13T12:12:02;14.10;99.90
22623;DHT22;11478;51.094;7.030;2022-10-13T12:14:41;14.10;99.90
22623;DHT22;11478;51.094;7.030;2022-10-13T12:22:13;13.90;99.90
22623;DHT22;11478;51.094;7.030;2022-10-13T12:27:30;13.80;99.90
22623;DHT22;11478;51.094;7.030;2022-10-13T12:30:03;13.80;99.90
22623;DHT22;11478;51.094;7.030;2022-10-13T12:32:53;13.70;99.90
22623;DHT22;11478;51.094;7.030;2022-10-13T12:35:30;13.80;99.90
22623;DHT22;11478;51.094;7.030;2022-10-13T12:38:02;13.80;99.90
22623;DHT22;11478;51.094;7.030;2022-10-13T12:40:29;13.80;99.90
22623;DHT22;11478;51.094;7.030;2022-10-13T12:45:46;13.90;99.90
22623;DHT22;11478;51.094;7.030;2022-10-13T12:48:33;14.00;99.90
22623;DHT22;11478;51.094;7.030;2022-10-13T12:51:14;14.10;99.90
22623;DHT22;11478;51.094;7.030;2022-10-13T12:54:17;14.10;99.90
22623;DHT22;11478;51.094;7.030;2022-10-13T12:56:54;14.20;99.90
22623;DHT22;11478;51.094;7.030;2022-10-13T12:59:27;14.20;99.90
22623;DHT22;11478;51.094;7.030;2022-10-13T13:01:54;14.20;99.90
22623;DHT22;11478;51.094;7.030;2022-10-13T13:07:02;14.40;99.90
22623;DHT22;11478;51.094;7.030;2022-10-13T13:09:32;14.40;99.90
22623;DHT22;11478;51.094;7.030;2022-10-13T13:14:42;14.50;99.90
22623;DHT22;11478;51.094;7.030;2022-10-13T13:19:38;14.60;99.90
22623;DHT22;11478;51.094;7.030;2022-10-13T13:22:04;14.60;99.90
22623;DHT22;11478;51.094;7.030;2022-10-13T13:24:30;14.60;99.90
22623;DHT22;11478;51.094;7.030;2022-10-13T13:26:56;14.50;99.90
22623;DHT22;11478;51.094;7.030;2022-10-13T13:29:23;14.40;99.90
22623;DHT22;11478;51.094;7.030;2022-10-13T13:31:48;14.40;99.90
22623;DHT22;11478;51.094;7.030;2022-10-13T13:39:50;14.20;99.90
22623;DHT22;11478;51.094;7.030;2022-10-13T13:42:20;14.10;99.90
22623;DHT22;11478;51.094;7.030;2022-10-13T13:44:45;14.10;99.90
22623;DHT22;11478;51.094;7.030;2022-10-13T13:47:20;14.10;99.90
22623;DHT22;11478;51.094;7.030;2022-10-13T13:49:46;14.10;99.90
22623;DHT22;11478;51.094;7.030;2022-10-13T13:52:12;14.00;99.90
22623;DHT22;11478;51.094;7.030;2022-10-13T13:54:38;14.00;99.90
22623;DHT22;11478;51.094;7.030;2022-10-13T13:57:04;14.00;99.90
22623;DHT22;11478;51.094;7.030;2022-10-13T13:59:29;14.00;99.90
22623;DHT22;11478;51.094;7.030;2022-10-13T14:02:00;13.90;99.90
22623;DHT22;11478;51.094;7.030;2022-10-13T14:04:26;13.90;99.90
22623;DHT22;11478;51.094;7.030;2022-10-13T14:06:52;14.00;99.90
22623;DHT22;11478;51.094;7.030;2022-10-13T14:09:18;13.90;99.90
22623;DHT22;11478;51.094;7.030;2022-10-13T14:11:44;13.90;99.90
22623;DHT22;11478;51.094;7.030;2022-10-13T14:14:09;13.90;99.90
22623;DHT22;11478;51.094;7.030;2022-10-13T14:16:36;13.80;99.90
22623;DHT22;11478;51.094;7.030;2022-10-13T14:19:02;13.80;99.90
22623;DHT22;11478;51.094;7.030;2022-10-13T14:21:27;13.80;99.90
22623;DHT22;11478;51.094;7.030;2022-10-13T14:23:53;13.80;99.90
22623;DHT22;11478;51.094;7.030;2022-10-13T14:26:30;13.80;99.90
22623;DHT22;11478;51.094;7.030;2022-10-13T14:28:56;13.90;99.90
22623;DHT22;11478;51.094;7.030;2022-10-13T14:31:23;13.90;99.90
22623;DHT22;11478;51.094;7.030;2022-10-13T14:33:49;13.90;99.90
22623;DHT22;11478;51.094;7.030;2022-10-13T14:39:02;14.00;99.90
22623;DHT22;11478;51.094;7.030;2022-10-13T14:41:33;13.90;99.90
22623;DHT22;11478;51.094;7.030;2022-10-13T14:43:59;13.90;99.90
22623;DHT22;11478;51.094;7.030;2022-10-13T14:46:25;13.90;99.90
22623;DHT22;11478;51.094;7.030;2022-10-13T14:48:50;13.90;99.90
22623;DHT22;11478;51.094;7.030;2022-10-13T14:51:19;13.90;99.90
22623;DHT22;11478;51.094;7.030;2022-10-13T14:53:45;13.90;99.90
22623;DHT22;11478;51.094;7.030;2022-10-13T14:58:39;13.90;99.90
22623;DHT22;11478;51.094;7.030;2022-10-13T15:01:07;13.90;99.90
22623;DHT22;11478;51.094;7.030;2022-10-13T15:03:32;13.90;99.90
22623;DHT22;11478;51.094;7.030;2022-10-13T15:05:58;13.80;99.90
22623;DHT22;11478;51.094;7.030;2022-10-13T15:08:24;13.90;99.90
22623;DHT22;11478;51.094;7.030;2022-10-13T15:10:59;13.90;99.90
22623;DHT22;11478;51.094;7.030;2022-10-13T15:13:25;13.80;99.90
22623;DHT22;11478;51.094;7.030;2022-10-13T15:15:50;13.80;99.90
22623;DHT22;11478;51.094;7.030;2022-10-13T15:18:16;13.80;99.90
22623;DHT22;11478;51.094;7.030;2022-10-13T15:27:11;13.80;99.90
22623;DHT22;11478;51.094;7.030;2022-10-13T15:29:37;13.80;99.90
22623;DHT22;11478;51.094;7.030;2022-10-13T15:32:10;13.80;99.90
22623;DHT22;11478;51.094;7.030;2022-10-13T15:34:39;13.80;99.90
22623;DHT22;11478;51.094;7.030;2022-10-13T15:37:06;13.70;99.90
22623;DHT22;11478;51.094;7.030;2022-10-13T15:39:32;13.70;99.90
22623;DHT22;11478;51.094;7.030;2022-10-13T15:41:57;13.70;99.90
22623;DHT22;11478;51.094;7.030;2022-10-13T15:44:23;13.70;99.90
22623;DHT22;11478;51.094;7.030;2022-10-13T15:46:49;13.60;99.90
22623;DHT22;11478;51.094;7.030;2022-10-13T15:49:15;13.60;99.90
22623;DHT22;11478;51.094;7.030;2022-10-13T15:51:41;13.60;99.90
22623;DHT22;11478;51.094;7.030;2022-10-13T15:54:06;13.60;99.90
22623;DHT22;11478;51.094;7.030;2022-10-13T15:56:34;13.50;99.90
22623;DHT22;11478;51.094;7.030;2022-10-13T15:59:00;13.50;99.90
22623;DHT22;11478;51.094;7.030;2022-10-13T16:01:26;13.40;99.90
22623;DHT22;11478;51.094;7.030;2022-10-13T16:03:52;13.40;99.90
22623;DHT22;11478;51.094;7.030;2022-10-13T16:06:19;13.40;99.90
22623;DHT22;11478;51.094;7.030;2022-10-13T16:08:46;13.30;99.90
22623;DHT22;11478;51.094;7.030;2022-10-13T16:11:13;13.30;99.90
22623;DHT22;11478;51.094;7.030;2022-10-13T16:13:39;13.20;99.90
22623;DHT22;11478;51.094;7.030;2022-10-13T16:16:05;13.20;99.90
22623;DHT22;11478;51.094;7.030;2022-10-13T16:18:36;13.20;99.90
22623;DHT22;11478;51.094;7.030;2022-10-13T16:23:34;13.10;99.90
22623;DHT22;11478;51.094;7.030;2022-10-13T16:26:00;13.10;99.90
22623;DHT22;11478;51.094;7.030;2022-10-13T16:28:27;13.10;99.90
22623;DHT22;11478;51.094;7.030;2022-10-13T16:30:53;13.00;99.90
22623;DHT22;11478;51.094;7.030;2022-10-13T16:33:18;13.00;99.90
22623;DHT22;11478;51.094;7.030;2022-10-13T16:35:44;13.00;99.90
22623;DHT22;11478;51.094;7.030;2022-10-13T16:38:15;13.00;99.90
22623;DHT22;11478;51.094;7.030;2022-10-13T16:40:40;13.00;99.90
22623;DHT22;11478;51.094;7.030;2022-10-13T16:43:07;12.90;99.90
22623;DHT22;11478;51.094;7.030;2022-10-13T16:45:33;12.90;99.90
22623;DHT22;11478;51.094;7.030;2022-10-13T16:47:59;12.90;99.90
22623;DHT22;11478;51.094;7.030;2022-10-13T16:50:24;12.90;99.90
22623;DHT22;11478;51.094;7.030;2022-10-13T16:52:50;12.90;99.90
22623;DHT22;11478;51.094;7.030;2022-10-13T16:55:16;12.90;99.90
22623;DHT22;11478;51.094;7.030;2022-10-13T16:57:42;12.90;99.90
22623;DHT22;11478;51.094;7.030;2022-10-13T17:00:09;12.80;99.90
22623;DHT22;11478;51.094;7.030;2022-10-13T17:02:36;12.80;99.90
22623;DHT22;11478;51.094;7.030;2022-10-13T17:05:02;12.80;99.90
22623;DHT22;11478;51.094;7.030;2022-10-13T17:09:59;12.80;99.90
22623;DHT22;11478;51.094;7.030;2022-10-13T17:12:36;12.80;99.90
22623;DHT22;11478;51.094;7.030;2022-10-13T17:15:06;12.80;99.90
22623;DHT22;11478;51.094;7.030;2022-10-13T17:17:32;12.70;99.90
22623;DHT22;11478;51.094;7.030;2022-10-13T17:20:00;12.70;99.90
22623;DHT22;11478;51.094;7.030;2022-10-13T17:22:27;12.70;99.90
22623;DHT22;11478;51.094;7.030;2022-10-13T17:25:00;12.70;99.90
22623;DHT22;11478;51.094;7.030;2022-10-13T17:27:25;12.70;99.90
22623;DHT22;11478;51.094;7.030;2022-10-13T17:29:51;12.70;99.90
22623;DHT22;11478;51.094;7.030;2022-10-13T17:32:19;12.60;99.90
22623;DHT22;11478;51.094;7.030;2022-10-13T17:34:49;12.60;99.90
22623;DHT22;11478;51.094;7.030;2022-10-13T17:37:15;12.60;99.90
22623;DHT22;11478;51.094;7.030;2022-10-13T17:39:40;12.60;99.90
22623;DHT22;11478;51.094;7.030;2022-10-13T17:42:06;12.60;99.90
22623;DHT22;11478;51.094;7.030;2022-10-13T17:44:33;12.60;99.90
22623;DHT22;11478;51.094;7.030;2022-10-13T17:46:58;12.60;99.90
22623;DHT22;11478;51.094;7.030;2022-10-13T17:49:24;12.60;99.90
22623;DHT22;11478;51.094;7.030;2022-10-13T17:51:50;12.50;99.90
22623;DHT22;11478;51.094;7.030;2022-10-13T17:54:17;12.50;99.90
22623;DHT22;11478;51.094;7.030;2022-10-13T17:56:46;12.50;99.90
22623;DHT22;11478;51.094;7.030;2022-10-13T17:59:16;12.50;99.90
22623;DHT22;11478;51.094;7.030;2022-10-13T18:01:42;12.50;99.90
22623;DHT22;11478;51.094;7.030;2022-10-13T18:04:12;12.50;99.90
22623;DHT22;11478;51.094;7.030;2022-10-13T18:06:38;12.50;99.90
22623;DHT22;11478;51.094;7.030;2022-10-13T18:09:06;12.50;99.90
22623;DHT22;11478;51.094;7.030;2022-10-13T18:11:32;12.50;99.90
22623;DHT22;11478;51.094;7.030;2022-10-13T18:13:59;12.50;99.90
22623;DHT22;11478;51.094;7.030;2022-10-13T18:16:25;12.60;99.90
22623;DHT22;11478;51.094;7.030;2022-10-13T18:18:51;12.60;99.90
22623;DHT22;11478;51.094;7.030;2022-10-13T18:21:18;12.60;99.90
22623;DHT22;11478;51.094;7.030;2022-10-13T18:23:49;12.70;99.90
22623;DHT22;11478;51.094;7.030;2022-10-13T18:26:16;12.70;99.90
22623;DHT22;11478;51.094;7.030;2022-10-13T18:28:43;12.70;99.90
22623;DHT22;11478;51.094;7.030;2022-10-13T18:31:16;12.70;99.90
22623;DHT22;11478;51.094;7.030;2022-10-13T18:33:42;12.70;99.90
22623;DHT22;11478;51.094;7.030;2022-10-13T18:36:12;12.70;99.90
22623;DHT22;11478;51.094;7.030;2022-10-13T18:38:38;12.70;99.90
22623;DHT22;11478;51.094;7.030;2022-10-13T18:41:04;12.70;99.90
22623;DHT22;11478;51.094;7.030;2022-10-13T18:43:30;12.70;99.90